Cambridge, Minnesota
Current Conditions -  °F | °C
As of 9:35 AM on Friday 28 Nov 2014 (Local Time) from KCBG Reporting Station
Light Snow Light Snow  
Wind Chill: -15°   Ceiling: 2300
Heat Index: -10°   Visibility: 3mi
Dew Point: -14°   Wind: 6mph
Humidity: 73%   Direction: 80°E
Pressure: 29.98"   Gusts: NA
Location:  45.57°N, 93.22°W
Report Text: KCBG 281535Z AUTO 08005KT 3SM -SN OVC023 M10/M14 A2998 RMK AO2
Loading
Personal Weather Stations






























Interactive Weather Map New forecast layout! Learn more

10-Day Weather Forecast

Advertisements
Track Severe Weather on mobile